Time;durP1;ratioP1;P1;durP2;ratioP2;P2;SDS_P1;SDS_P2;PMS_P1;PMS_P2;Temp;Humidity;BMP_temperature;BMP_pressure;BME280_temperature;BME280_humidity;BME280_pressure;Samples;Min_cycle;Max_cycle;Signal;HPM_P1;HPM_P2
2021/04/15 00:00:24;;;;;;;5.17;3.80;;;;;;;3.25;90.05;100634.41;1770656;81;25532;-83
2021/04/15 00:02:49;;;;;;;4.22;3.42;;;;;;;3.23;90.08;100632.41;1767211;80;25262;-84
2021/04/15 00:05:24;;;;;;;4.83;2.97;;;;;;;3.19;89.92;100633.10;1766856;81;30955;-84
2021/04/15 00:07:50;;;;;;;5.25;3.40;;;;;;;3.17;89.90;100627.22;1700760;82;25296;-84
2021/04/15 00:10:16;;;;;;;4.97;3.47;;;;;;;3.15;89.92;100625.67;1770973;81;25194;-83
2021/04/15 00:12:42;;;;;;;4.95;3.50;;;;;;;3.13;89.81;100630.12;1771121;80;25662;-85
2021/04/15 00:15:13;;;;;;;4.90;3.58;;;;;;;3.09;89.76;100629.05;1770983;80;25214;-84
2021/04/15 00:17:39;;;;;;;5.40;3.70;;;;;;;3.07;89.73;100632.20;1770852;81;25325;-83
2021/04/15 00:20:07;;;;;;;5.62;3.47;;;;;;;3.04;89.59;100632.42;1770738;80;25186;-82
2021/04/15 00:22:33;;;;;;;4.03;2.83;;;;;;;3.05;89.62;100626.31;1770745;81;25224;-83
2021/04/15 00:25:00;;;;;;;4.17;3.23;;;;;;;3.06;89.66;100626.69;1760983;80;25633;-84
2021/04/15 00:27:26;;;;;;;4.40;3.40;;;;;;;3.04;89.53;100621.28;1776024;80;25623;-83
2021/04/15 00:29:52;;;;;;;3.80;3.30;;;;;;;3.02;89.52;100623.14;1791380;79;32913;-83
2021/04/15 00:32:18;;;;;;;4.13;2.83;;;;;;;2.98;89.44;100621.73;1790906;80;25219;-84
2021/04/15 00:34:44;;;;;;;4.67;3.50;;;;;;;2.96;89.48;100618.42;1790940;80;25216;-84
2021/04/15 00:37:10;;;;;;;4.70;3.50;;;;;;;2.94;89.58;100619.81;1790908;80;25467;-83
2021/04/15 00:39:36;;;;;;;3.60;3.00;;;;;;;2.87;89.62;100617.33;1790928;80;25191;-83
2021/04/15 00:42:04;;;;;;;8.20;3.47;;;;;;;2.83;89.71;100621.86;1791158;80;25240;-81
2021/04/15 00:44:30;;;;;;;5.30;3.27;;;;;;;2.84;89.52;100621.42;1790875;79;25692;-82
2021/04/15 00:47:07;;;;;;;3.90;2.93;;;;;;;2.83;89.57;100625.73;1791073;79;25753;-80
2021/04/15 00:49:38;;;;;;;4.12;2.95;;;;;;;2.80;89.73;100624.66;1790989;79;25691;-84
2021/04/15 00:52:12;;;;;;;4.58;3.17;;;;;;;2.77;89.64;100623.59;1757406;80;25287;-84
2021/04/15 00:54:48;;;;;;;5.17;3.50;;;;;;;2.76;89.67;100620.66;1790922;80;25267;-83
2021/04/15 00:57:22;;;;;;;4.55;3.12;;;;;;;2.78;89.73;100624.41;1790532;80;25208;-84
2021/04/15 00:59:48;;;;;;;4.70;3.80;;;;;;;2.73;89.85;100619.59;1789032;79;25330;-83
2021/04/15 01:02:17;;;;;;;5.17;3.63;;;;;;;2.72;89.91;100619.69;1779564;80;25604;-84
2021/04/15 01:04:43;;;;;;;6.05;4.00;;;;;;;2.72;89.93;100619.69;1764374;80;25321;-84
2021/04/15 01:07:10;;;;;;;4.00;3.27;;;;;;;2.75;89.87;100620.28;1775059;80;34818;-83
2021/04/15 01:09:36;;;;;;;6.03;3.58;;;;;;;2.79;90.00;100619.63;1766320;80;25266;-84
2021/04/15 01:12:39;;;;;;;4.43;3.50;;;;;;;2.79;89.86;100615.28;1764161;81;25299;-84
2021/04/15 01:15:17;;;;;;;5.75;3.62;;;;;;;2.79;89.69;100616.57;1764052;81;25597;-84
2021/04/15 01:17:51;;;;;;;5.67;3.20;;;;;;;2.80;89.73;100613.05;1764016;81;25194;-84
2021/04/15 01:20:52;;;;;;;4.92;3.55;;;;;;;2.80;89.78;100607.88;1763907;80;25306;-82
2021/04/15 01:23:28;;;;;;;4.45;3.35;;;;;;;2.79;89.83;100604.95;1753954;81;25705;-84
2021/04/15 01:26:11;;;;;;;5.60;3.40;;;;;;;2.78;89.85;100603.32;1754056;81;25767;-85
2021/04/15 01:29:21;;;;;;;4.58;3.05;;;;;;;2.76;89.84;100599.20;1752761;81;25735;-83
2021/04/15 01:32:14;;;;;;;5.05;3.30;;;;;;;2.63;90.13;100582.45;1754135;81;25258;-85
2021/04/15 01:35:06;;;;;;;6.35;3.87;;;;;;;2.63;90.13;100582.45;1753946;81;25723;-84
2021/04/15 01:37:51;;;;;;;5.10;3.90;;;;;;;2.74;90.19;100590.73;1602183;87;25513;-74
2021/04/15 01:40:35;;;;;;;6.60;3.65;;;;;;;2.74;90.19;100590.73;1601492;87;25306;-76
2021/04/15 01:43:27;;;;;;;5.60;3.52;;;;;;;2.75;90.00;100586.73;1600308;87;25877;-76
2021/04/15 01:45:54;;;;;;;5.28;3.47;;;;;;;2.78;90.24;100586.98;1599978;87;26622;-76
2021/04/15 01:48:28;;;;;;;7.62;3.50;;;;;;;2.76;90.61;100587.59;1601532;87;25636;-76
2021/04/15 01:51:04;;;;;;;5.97;3.45;;;;;;;2.68;90.54;100573.11;1601566;87;26398;-82
2021/04/15 01:53:51;;;;;;;6.03;3.85;;;;;;;2.74;90.83;100574.78;1602718;87;25817;-82
2021/04/15 01:56:39;;;;;;;4.75;3.20;;;;;;;2.72;90.49;100583.09;1601596;87;25892;-82
2021/04/15 01:59:22;;;;;;;5.97;3.98;;;;;;;2.74;90.62;100577.36;1601378;87;26222;-82
2021/04/15 02:01:55;;;;;;;4.78;3.70;;;;;;;2.73;90.59;100580.88;1636981;83;25866;-82
2021/04/15 02:04:32;;;;;;;4.33;3.50;;;;;;;2.72;90.59;100574.53;1679005;83;25839;-82
2021/04/15 02:07:04;;;;;;;5.85;3.27;;;;;;;2.73;90.55;100569.27;1677817;83;26020;-82
2021/04/15 02:09:31;;;;;;;5.35;3.50;;;;;;;2.75;90.62;100574.30;1677260;83;26560;-82
2021/04/15 02:12:11;;;;;;;4.22;3.22;;;;;;;2.78;90.52;100563.76;1675967;83;25845;-82
2021/04/15 02:14:41;;;;;;;4.12;3.47;;;;;;;2.83;90.39;100565.08;1678981;83;25794;-80
2021/04/15 02:17:09;;;;;;;4.53;3.63;;;;;;;2.88;90.39;100558.30;1653625;83;25926;-81
2021/04/15 02:19:45;;;;;;;5.35;3.30;;;;;;;2.85;90.76;100562.39;1678905;83;25746;-81
2021/04/15 02:22:36;;;;;;;4.87;3.27;;;;;;;2.88;90.38;100559.59;1653284;83;26618;-82
2021/04/15 02:25:10;;;;;;;5.85;3.52;;;;;;;2.91;90.36;100555.97;1677435;83;25721;-82
2021/04/15 02:27:59;;;;;;;4.80;3.15;;;;;;;2.92;90.51;100561.47;1677168;83;25729;-80
2021/04/15 02:30:47;;;;;;;5.70;3.92;;;;;;;2.87;90.72;100560.06;1678746;83;25719;-81
2021/04/15 02:33:27;;;;;;;4.40;3.55;;;;;;;2.86;90.51;100555.00;1677737;83;25758;-82
2021/04/15 02:36:00;;;;;;;4.65;3.65;;;;;;;2.88;90.76;100560.88;1674586;83;25813;-80
2021/04/15 02:38:37;;;;;;;4.28;3.60;;;;;;;2.84;90.91;100553.83;1660133;85;25761;-82
2021/04/15 02:41:06;;;;;;;4.17;3.27;;;;;;;2.81;90.84;100552.77;1645302;85;25890;-82
2021/04/15 02:44:10;;;;;;;6.30;3.55;;;;;;;2.82;90.88;100559.56;1659687;85;25844;-82
2021/04/15 02:46:50;;;;;;;4.60;3.52;;;;;;;2.81;90.86;100544.17;1672825;83;26260;-82
2021/04/15 02:49:17;;;;;;;;;;;;;;;2.80;90.74;100546.41;1670551;83;25890;-82
2021/04/15 02:51:51;;;;;;;5.10;3.52;;;;;;;2.79;90.80;100548.17;1671211;83;25792;-82
2021/04/15 02:54:29;;;;;;;4.00;3.35;;;;;;;2.79;90.94;100544.78;1671204;83;25816;-81
2021/04/15 02:57:10;;;;;;;5.40;3.65;;;;;;;2.76;90.83;100544.53;1672263;83;25794;-81
2021/04/15 02:59:58;;;;;;;5.92;3.60;;;;;;;2.75;90.99;100548.02;1669073;83;25890;-81
2021/04/15 03:02:32;;;;;;;4.33;3.08;;;;;;;2.73;90.78;100544.75;1670681;83;25858;-82
2021/04/15 03:05:09;;;;;;;4.33;3.47;;;;;;;2.74;90.66;100542.52;1670899;83;25814;-81
2021/04/15 03:07:39;;;;;;;4.70;3.77;;;;;;;2.74;90.66;100537.83;1672032;83;25735;-81
2021/04/15 03:10:11;;;;;;;3.92;2.92;;;;;;;2.70;90.55;100540.25;1656921;83;25822;-82
2021/04/15 03:12:50;;;;;;;4.65;3.40;;;;;;;2.71;90.72;100548.38;1672866;83;25754;-82
2021/04/15 03:15:25;;;;;;;5.72;3.50;;;;;;;2.66;90.55;100546.11;1672722;83;26651;-82
2021/04/15 03:17:59;;;;;;;6.35;3.67;;;;;;;2.61;90.57;100536.58;1670272;83;26303;-82
2021/04/15 03:20:30;;;;;;;4.55;3.70;;;;;;;2.61;90.62;100541.27;1670941;83;25736;-82
2021/04/15 03:23:07;;;;;;;6.05;3.70;;;;;;;2.60;90.57;100543.98;1671106;83;25642;-82
2021/04/15 03:25:33;;;;;;;5.70;3.55;;;;;;;2.60;90.76;100538.34;1670681;83;25682;-82
2021/04/15 03:28:19;;;;;;;3.33;3.03;;;;;;;2.59;90.88;100538.44;1673042;83;25954;-82
2021/04/15 03:30:53;;;;;;;4.20;3.08;;;;;;;2.58;91.00;100539.38;1671148;83;25823;-82
2021/04/15 03:33:33;;;;;;;4.53;3.42;;;;;;;2.57;90.81;100533.88;1669645;83;25726;-82
2021/04/15 03:36:17;;;;;;;4.25;3.72;;;;;;;2.59;90.78;100540.58;1669247;83;25758;-82
2021/04/15 03:38:57;;;;;;;4.33;3.58;;;;;;;2.65;90.85;100537.55;1668909;83;25366;-82
2021/04/15 03:41:37;;;;;;;4.05;3.15;;;;;;;2.65;90.66;100538.84;1665232;83;25724;-83
2021/04/15 03:44:26;;;;;;;;;;;;;;;2.63;90.93;100541.99;1675338;83;25729;-82
2021/04/15 03:47:16;;;;;;;4.17;3.40;;;;;;;2.55;90.63;100541.72;1697251;82;25827;-82
2021/04/15 03:49:53;;;;;;;3.40;3.10;;;;;;;2.55;90.63;100541.72;1605544;87;29455;-82
2021/04/15 03:52:31;;;;;;;3.42;3.02;;;;;;;2.52;90.97;100544.52;1601253;87;25779;-81
2021/04/15 03:55:17;;;;;;;3.37;2.83;;;;;;;2.48;90.87;100541.78;1602780;87;26400;-82
2021/04/15 03:57:45;;;;;;;3.27;2.92;;;;;;;2.46;91.19;100541.09;1595787;87;26613;-82
2021/04/15 04:00:19;;;;;;;3.50;3.12;;;;;;;2.45;90.80;100543.28;1607747;87;25863;-82
2021/04/15 04:02:56;;;;;;;4.08;3.55;;;;;;;2.43;91.02;100543.88;1604239;87;26016;-82
2021/04/15 04:05:27;;;;;;;3.02;2.77;;;;;;;2.39;90.74;100542.44;1604944;87;25807;-83
2021/04/15 04:08:04;;;;;;;3.67;3.02;;;;;;;2.38;90.80;100542.91;1601328;87;26993;-83
2021/04/15 04:10:39;;;;;;;3.72;2.92;;;;;;;2.39;90.87;100545.02;1602755;87;25821;-83
2021/04/15 04:13:32;;;;;;;4.67;3.05;;;;;;;2.37;90.60;100546.43;1598212;87;25849;-83
2021/04/15 04:16:09;;;;;;;4.53;4.10;;;;;;;2.34;90.63;100547.91;1604425;87;25954;-81
2021/04/15 04:19:11;;;;;;;3.50;2.90;;;;;;;2.29;90.45;100546.14;1603722;87;26023;-82
2021/04/15 04:22:07;;;;;;;3.67;3.20;;;;;;;2.31;90.51;100546.84;1605193;87;26692;-82
2021/04/15 04:24:53;;;;;;;4.30;3.60;;;;;;;2.31;90.41;100547.31;1607241;87;25478;-83
2021/04/15 04:27:48;;;;;;;3.42;3.00;;;;;;;2.25;90.35;100538.72;1701742;82;26759;-81
2021/04/15 04:30:28;;;;;;;3.98;2.98;;;;;;;2.10;90.26;100515.66;1703246;82;25998;-82
2021/04/15 04:33:02;;;;;;;4.62;3.65;;;;;;;2.23;90.53;100545.26;1701678;82;27396;-80
2021/04/15 04:35:32;;;;;;;4.20;3.02;;;;;;;2.25;90.37;100549.03;1705110;82;26477;-82
2021/04/15 04:38:06;;;;;;;4.50;3.12;;;;;;;2.23;90.33;100552.99;1703396;82;25936;-81
2021/04/15 04:40:45;;;;;;;5.28;3.50;;;;;;;2.26;90.35;100557.11;1703097;82;25673;-82
2021/04/15 04:43:29;;;;;;;4.37;3.65;;;;;;;2.33;90.29;100551.91;1704812;82;25762;-82
2021/04/15 04:46:03;;;;;;;5.65;3.77;;;;;;;2.33;90.29;100551.91;1702643;82;25968;-82
2021/04/15 04:48:35;;;;;;;5.25;3.95;;;;;;;2.23;90.22;100540.92;1704657;82;26434;-82
2021/04/15 04:51:11;;;;;;;4.03;3.22;;;;;;;2.31;90.23;100557.62;1703838;82;25359;-82
2021/04/15 04:53:40;;;;;;;5.87;3.98;;;;;;;2.31;90.27;100553.76;1683271;83;25864;-81
2021/04/15 04:56:23;;;;;;;5.28;3.75;;;;;;;2.31;90.27;100559.73;1702936;82;25697;-81
2021/04/15 04:58:52;;;;;;;5.60;3.52;;;;;;;2.34;90.32;100553.06;1703907;82;25657;-82
2021/04/15 05:01:19;;;;;;;3.70;3.35;;;;;;;2.38;90.25;100553.70;1705365;82;25729;-82
2021/04/15 05:03:45;;;;;;;4.22;3.25;;;;;;;2.39;90.42;100554.86;1687585;82;25848;-81
2021/04/15 05:06:22;;;;;;;6.83;3.83;;;;;;;2.38;90.56;100548.06;1703403;82;25924;-82
2021/04/15 05:09:02;;;;;;;6.05;3.60;;;;;;;2.31;90.42;100531.36;1703760;81;25773;-81
2021/04/15 05:11:31;;;;;;;5.17;3.90;;;;;;;2.42;90.52;100553.83;1706842;82;25863;-81
2021/04/15 05:13:59;;;;;;;8.28;5.12;;;;;;;2.41;90.47;100549.61;1703077;82;26770;-81
2021/04/15 05:16:31;;;;;;;8.15;6.15;;;;;;;2.39;90.41;100547.12;1704263;82;25757;-82
2021/04/15 05:18:57;;;;;;;5.55;4.65;;;;;;;2.40;90.58;100548.80;1704848;82;25812;-82
2021/04/15 05:21:25;;;;;;;6.17;4.57;;;;;;;2.39;90.45;100544.55;1704939;82;25718;-82
2021/04/15 05:24:06;;;;;;;9.13;5.25;;;;;;;2.41;90.42;100541.40;1705689;82;25762;-82
2021/04/15 05:29:33;;;;;;;7.20;4.10;;;;;;;2.47;90.45;100551.75;1622169;86;25782;-82
2021/04/15 05:32:00;;;;;;;4.72;3.90;;;;;;;2.47;90.50;100544.48;1621616;86;25846;-82
2021/04/15 05:34:48;;;;;;;3.95;3.45;;;;;;;2.48;90.65;100547.41;1620764;86;25743;-82
2021/04/15 05:37:19;;;;;;;5.10;3.83;;;;;;;2.43;90.59;100548.57;1620468;86;25721;-82
2021/04/15 05:39:46;;;;;;;4.47;3.22;;;;;;;2.48;90.61;100543.54;1617211;87;27089;-82
2021/04/15 05:42:30;;;;;;;3.90;3.20;;;;;;;2.52;90.63;100547.09;1600590;87;44418;-81
2021/04/15 05:45:07;;;;;;;4.35;3.50;;;;;;;2.49;90.41;100538.28;1620848;86;25405;-82
2021/04/15 05:48:00;;;;;;;4.60;3.75;;;;;;;2.49;90.40;100543.44;1621007;86;25971;-81
2021/04/15 05:50:36;;;;;;;8.63;5.58;;;;;;;2.49;90.40;100543.44;1619798;86;25848;-81
2021/04/15 05:53:25;;;;;;;7.42;4.08;;;;;;;2.55;90.63;100543.00;1622271;86;25866;-81
2021/04/15 05:56:13;;;;;;;4.92;3.42;;;;;;;2.63;90.84;100547.16;1624764;86;25796;-81
2021/04/15 05:59:11;;;;;;;4.03;3.15;;;;;;;2.63;90.74;100543.28;1620902;86;25800;-81
2021/04/15 06:01:47;;;;;;;3.77;3.30;;;;;;;2.60;90.82;100538.81;1620423;86;25820;-82
2021/04/15 06:04:29;;;;;;;4.30;3.20;;;;;;;2.59;90.96;100543.60;1623645;86;25868;-82
2021/04/15 06:06:56;;;;;;;4.67;3.50;;;;;;;2.62;91.05;100542.12;1592797;86;27356;-82
2021/04/15 06:09:22;;;;;;;6.00;3.80;;;;;;;2.56;91.04;100529.63;1622690;86;25889;-82
2021/04/15 06:12:04;;;;;;;3.83;3.07;;;;;;;2.63;91.08;100543.75;1618181;86;34878;-82
2021/04/15 06:14:48;;;;;;;5.10;4.08;;;;;;;2.64;91.29;100536.36;1620981;86;25790;-83
2021/04/15 06:17:36;;;;;;;5.03;3.10;;;;;;;2.66;91.10;100539.66;1623203;86;25820;-82
2021/04/15 06:20:17;;;;;;;4.83;3.70;;;;;;;2.71;91.15;100539.34;1623651;86;25844;-81
2021/04/15 06:22:48;;;;;;;4.75;2.72;;;;;;;2.75;91.17;100534.30;1620106;86;25444;-82
2021/04/15 06:25:30;;;;;;;4.05;3.12;;;;;;;2.80;91.34;100533.03;1619313;86;25988;-82
2021/04/15 06:28:10;;;;;;;4.78;3.30;;;;;;;2.80;91.31;100530.92;1626355;85;26538;-83
2021/04/15 06:30:41;;;;;;;4.17;3.30;;;;;;;2.85;91.27;100533.53;1637758;85;25780;-83
2021/04/15 06:33:12;;;;;;;4.75;3.35;;;;;;;2.89;91.32;100527.67;1637861;85;25689;-83
2021/04/15 06:35:42;;;;;;;7.08;3.80;;;;;;;2.91;91.22;100528.86;1638260;85;25731;-84
2021/04/15 06:38:36;;;;;;;5.90;4.10;;;;;;;2.94;91.24;100531.22;1640215;85;32694;-77
2021/04/15 06:41:47;;;;;;;4.28;3.58;;;;;;;2.95;91.42;100528.53;1638229;85;25731;-75
2021/04/15 06:44:54;;;;;;;8.90;4.90;;;;;;;2.97;91.30;100524.06;1638160;85;25728;-84
2021/04/15 06:48:06;;;;;;;4.33;3.85;;;;;;;3.03;91.63;100531.86;1638289;85;26389;-83
2021/04/15 06:51:07;;;;;;;10.85;5.10;;;;;;;3.05;91.66;100526.91;1638615;85;25351;-78
2021/04/15 06:53:57;;;;;;;;;;;;;;;3.08;91.52;100519.41;1642165;85;25873;-83
2021/04/15 06:56:39;;;;;;;;;;;;;;;3.14;91.53;100523.30;1640438;85;26471;-82
2021/04/15 06:59:36;;;;;;;4.42;3.98;;;;;;;3.19;91.53;100526.36;1639332;85;25538;-80
2021/04/15 07:02:19;;;;;;;5.12;4.10;;;;;;;3.22;91.83;100532.15;1640932;85;26879;-81
2021/04/15 07:04:56;;;;;;;5.70;4.58;;;;;;;3.25;91.58;100523.35;1605044;87;25870;-84
2021/04/15 07:07:42;;;;;;;7.53;5.15;;;;;;;3.30;91.68;100526.39;1606050;87;25783;-83
2021/04/15 07:10:34;;;;;;;7.17;4.55;;;;;;;3.33;91.66;100526.19;1605335;87;26760;-81
2021/04/15 07:13:14;;;;;;;6.22;4.62;;;;;;;3.41;91.82;100526.44;1604499;87;25904;-80
2021/04/15 07:16:09;;;;;;;6.35;4.28;;;;;;;3.45;91.70;100524.44;1607249;86;26431;-80
2021/04/15 07:18:52;;;;;;;6.03;3.98;;;;;;;3.49;91.79;100524.55;1604697;87;25823;-84
2021/04/15 07:21:53;;;;;;;5.10;4.60;;;;;;;3.51;92.26;100527.38;1605048;87;25859;-85
2021/04/15 07:24:57;;;;;;;;;;;;;;;3.50;91.91;100528.80;1610192;86;25463;-78
2021/04/15 07:28:07;;;;;;;5.92;3.40;;;;;;;3.54;92.15;100531.48;1609107;87;25394;-80
2021/04/15 07:31:01;;;;;;;7.75;4.00;;;;;;;3.53;91.94;100531.96;1641265;85;25893;-78
2021/04/15 07:33:52;;;;;;;6.83;4.47;;;;;;;3.59;92.27;100533.26;1639320;85;25796;-86
2021/04/15 07:36:59;;;;;;;7.25;3.85;;;;;;;3.66;92.12;100534.93;1639302;85;25924;-79
2021/04/15 07:39:45;;;;;;;5.67;4.28;;;;;;;3.72;92.19;100533.17;1638740;85;25527;-83
2021/04/15 07:42:22;;;;;;;6.40;4.35;;;;;;;3.75;92.12;100529.87;1633705;85;26441;-77
2021/04/15 07:45:11;;;;;;;4.37;3.60;;;;;;;3.79;92.17;100530.45;1541403;91;25700;-83
2021/04/15 07:47:57;;;;;;;5.40;3.63;;;;;;;3.85;92.11;100536.47;1541155;91;25937;-84
2021/04/15 07:50:50;;;;;;;5.08;3.77;;;;;;;3.85;91.89;100537.76;1540780;91;25837;-74
2021/04/15 07:53:50;;;;;;;7.60;4.37;;;;;;;3.88;91.90;100536.70;1540203;91;25427;-73
2021/04/15 07:56:38;;;;;;;6.78;4.60;;;;;;;3.89;92.04;100534.45;1540560;91;25993;-81
2021/04/15 07:59:45;;;;;;;4.55;3.12;;;;;;;3.93;91.96;100542.35;1534363;91;25756;-75
2021/04/15 08:02:34;;;;;;;5.05;3.52;;;;;;;3.91;91.92;100540.34;1533846;91;25880;-76
2021/04/15 08:05:24;;;;;;;7.55;4.37;;;;;;;3.92;91.93;100541.50;1533127;91;25958;-76
2021/04/15 08:08:09;;;;;;;11.57;5.72;;;;;;;3.96;91.88;100543.41;1529429;91;25766;-82
2021/04/15 08:11:02;;;;;;;6.97;3.83;;;;;;;4.00;91.91;100543.50;1529735;91;25895;-83
2021/04/15 08:13:49;;;;;;;8.30;4.75;;;;;;;4.05;91.88;100546.56;1538093;90;26710;-84
2021/04/15 08:16:54;;;;;;;5.90;3.75;;;;;;;4.07;91.79;100542.58;1536572;90;25826;-83
2021/04/15 08:19:47;;;;;;;6.00;4.03;;;;;;;4.12;92.03;100543.87;1539320;90;25477;-81
2021/04/15 08:22:52;;;;;;;5.85;4.08;;;;;;;4.11;91.56;100549.14;1573481;86;25969;-80
2021/04/15 08:26:04;;;;;;;5.90;3.77;;;;;;;4.09;91.38;100546.69;1622462;86;25437;-80
2021/04/15 08:29:11;;;;;;;10.28;4.95;;;;;;;4.10;91.79;100544.45;1621882;86;25810;-80
2021/04/15 08:31:47;;;;;;;5.15;3.90;;;;;;;4.11;91.81;100543.50;1650739;84;25655;-81
2021/04/15 08:34:27;;;;;;;6.15;4.30;;;;;;;4.21;92.00;100550.08;1620434;86;25798;-80
2021/04/15 08:37:27;;;;;;;5.62;3.77;;;;;;;4.25;91.94;100550.19;1633531;86;25903;-80
2021/04/15 08:40:06;;;;;;;;;;;;;;;4.31;92.19;100548.44;1605576;87;25910;-83
2021/04/15 08:43:14;;;;;;;6.33;4.42;;;;;;;4.35;91.93;100547.71;1601657;88;25878;-81
2021/04/15 08:46:06;;;;;;;6.70;4.20;;;;;;;4.37;91.86;100545.84;1599064;87;26012;-83
2021/04/15 08:49:00;;;;;;;5.83;4.03;;;;;;;4.38;91.69;100548.77;1587418;88;25831;-82
2021/04/15 08:52:15;;;;;;;5.70;4.12;;;;;;;4.42;91.84;100547.59;1587955;88;25386;-83
2021/04/15 08:55:07;;;;;;;9.98;3.98;;;;;;;4.46;91.77;100551.57;1551574;90;25873;-83
2021/04/15 08:57:53;;;;;;;5.80;4.08;;;;;;;4.44;91.62;100547.80;1550301;90;25813;-80
2021/04/15 09:00:28;;;;;;;5.35;4.05;;;;;;;4.47;91.65;100549.32;1552695;90;25801;-83
2021/04/15 09:03:29;;;;;;;7.92;4.83;;;;;;;4.50;91.66;100549.11;1551837;90;25438;-78
2021/04/15 09:06:09;;;;;;;4.67;3.80;;;;;;;4.50;91.44;100549.11;1554203;90;25436;-74
2021/04/15 09:09:01;;;;;;;9.60;4.55;;;;;;;4.52;91.38;100545.91;1549872;90;25715;-77
2021/04/15 09:11:33;;;;;;;8.65;5.12;;;;;;;4.52;91.31;100551.08;1524817;92;25799;-73
2021/04/15 09:14:42;;;;;;;7.17;4.58;;;;;;;4.51;91.35;100546.86;1571487;89;25422;-75
2021/04/15 09:17:41;;;;;;;6.70;4.45;;;;;;;4.55;91.43;100542.25;1570254;89;25424;-76
2021/04/15 09:20:35;;;;;;;5.50;4.05;;;;;;;4.56;91.45;100542.14;1571990;89;25909;-82
2021/04/15 09:23:37;;;;;;;8.88;5.72;;;;;;;4.62;91.75;100545.53;1549144;89;25813;-76
2021/04/15 09:26:40;;;;;;;11.53;6.67;;;;;;;4.64;91.62;100539.77;1586200;88;25660;-75
2021/04/15 09:29:17;;;;;;;9.45;5.15;;;;;;;4.61;91.34;100543.90;1616504;85;25821;-80
2021/04/15 09:32:00;;;;;;;13.20;7.40;;;;;;;4.57;91.43;100534.72;1649284;85;25693;-79
2021/04/15 09:34:50;;;;;;;11.48;5.97;;;;;;;4.60;91.54;100540.94;1645199;84;25791;-78
2021/04/15 09:37:53;;;;;;;14.10;8.25;;;;;;;4.65;91.69;100539.29;1675194;83;25335;-82
2021/04/15 09:41:08;;;;;;;9.28;5.85;;;;;;;4.65;91.66;100540.59;1676521;83;25861;-82
2021/04/15 09:43:51;;;;;;;8.93;5.75;;;;;;;4.66;91.53;100537.05;1676921;83;25797;-78
2021/04/15 09:46:38;;;;;;;7.03;5.30;;;;;;;4.71;91.62;100538.80;1679650;83;25797;-79
2021/04/15 09:49:39;;;;;;;8.38;5.75;;;;;;;4.74;91.62;100545.50;1673681;83;25760;-74
2021/04/15 09:52:39;;;;;;;7.67;5.28;;;;;;;4.74;91.40;100540.31;1673706;83;25800;-76
2021/04/15 09:55:54;;;;;;;7.22;4.87;;;;;;;4.78;91.59;100541.73;1647852;85;25964;-82
2021/04/15 09:58:55;;;;;;;7.95;5.50;;;;;;;4.85;91.61;100538.98;1625231;85;25868;-80
2021/04/15 10:01:26;;;;;;;6.78;5.05;;;;;;;4.84;91.06;100541.23;1649572;85;25818;-85
2021/04/15 10:04:33;;;;;;;7.05;5.00;;;;;;;4.81;91.00;100540.19;1647717;85;25890;-80
2021/04/15 10:07:12;;;;;;;6.62;5.00;;;;;;;4.79;90.80;100542.07;1645296;85;25760;-79
2021/04/15 10:09:50;;;;;;;6.50;4.40;;;;;;;4.82;91.26;100540.52;1647783;85;25844;-83
2021/04/15 10:12:42;;;;;;;8.28;5.75;;;;;;;4.83;91.11;100535.23;1648285;85;25801;-83
2021/04/15 10:15:19;;;;;;;6.00;4.42;;;;;;;4.86;91.16;100538.87;1648050;85;26679;-84
2021/04/15 10:17:57;;;;;;;8.53;5.50;;;;;;;4.88;90.91;100541.32;1647015;85;25871;-83
2021/04/15 10:20:49;;;;;;;10.60;5.62;;;;;;;4.85;90.85;100546.75;1646242;85;25594;-81
2021/04/15 10:23:30;;;;;;;7.42;5.33;;;;;;;4.86;90.94;100547.12;1647084;85;25652;-81
2021/04/15 10:26:04;;;;;;;7.53;4.87;;;;;;;4.83;90.70;100544.78;1648256;85;25379;-85
2021/04/15 10:32:05;;;;;;;6.97;4.67;;;;;;;4.84;90.76;100549.00;1620540;87;25292;-82
2021/04/15 10:35:28;;;;;;;6.67;4.55;;;;;;;4.83;90.64;100549.48;1638229;87;25411;-84
2021/04/15 10:38:35;;;;;;;7.28;4.60;;;;;;;4.84;90.74;100554.18;1638027;87;25720;-84
2021/04/15 10:41:46;;;;;;;6.12;4.60;;;;;;;4.80;90.67;100545.84;1640128;86;25370;-85
2021/04/15 10:44:55;;;;;;;6.42;4.72;;;;;;;4.82;90.73;100546.52;1613186;88;25821;-84
2021/04/15 10:47:52;;;;;;;6.15;4.85;;;;;;;4.88;90.88;100545.20;1599876;89;25789;-84
2021/04/15 10:50:57;;;;;;;6.47;4.67;;;;;;;4.92;90.85;100546.62;1599137;89;25225;-85
2021/04/15 10:54:11;;;;;;;7.15;5.53;;;;;;;5.02;91.09;100551.41;1599948;88;25767;-85
2021/04/15 10:56:43;;;;;;;9.18;5.92;;;;;;;5.14;91.24;100547.47;1454112;96;25489;-76
2021/04/15 10:59:31;;;;;;;12.78;5.67;;;;;;;5.14;90.71;100544.88;1453913;96;25926;-75
2021/04/15 11:02:34;;;;;;;7.70;5.00;;;;;;;5.18;90.89;100552.73;1454681;96;25861;-74
2021/04/15 11:05:27;;;;;;;9.75;6.33;;;;;;;5.19;90.51;100549.21;1454047;95;25821;-79
2021/04/15 11:07:57;;;;;;;7.90;5.85;;;;;;;5.15;90.50;100556.88;1463625;93;26001;-83
2021/04/15 11:10:30;;;;;;;8.90;5.95;;;;;;;5.14;90.46;100555.23;1513791;93;26761;-74
2021/04/15 11:13:13;;;;;;;7.08;5.10;;;;;;;5.00;90.41;100533.86;1516069;93;25550;-81
2021/04/15 11:15:50;;;;;;;7.12;5.03;;;;;;;5.15;90.67;100557.69;1571994;87;25498;-83
2021/04/15 11:18:35;;;;;;;8.43;5.47;;;;;;;5.19;90.48;100558.28;1587067;88;26146;-73
2021/04/15 11:21:18;;;;;;;10.23;7.05;;;;;;;5.21;90.32;100561.55;1586904;88;25926;-74
2021/04/15 11:23:44;;;;;;;11.85;8.20;;;;;;;5.23;90.32;100566.14;1586414;88;25999;-75
2021/04/15 11:26:25;;;;;;;11.57;7.22;;;;;;;5.26;90.31;100565.88;1588528;88;26699;-76
2021/04/15 11:28:54;;;;;;;;;;;;;;;5.28;89.95;100564.81;1590634;88;25491;-76
2021/04/15 11:31:39;;;;;;;8.98;6.03;;;;;;;5.27;90.08;100566.25;1590491;86;25887;-76
2021/04/15 11:34:26;;;;;;;12.35;7.90;;;;;;;5.31;90.08;100559.85;1640081;85;25695;-80
2021/04/15 11:37:10;;;;;;;9.33;6.55;;;;;;;5.32;89.89;100557.62;1639833;85;25853;-83
2021/04/15 11:39:37;;;;;;;9.88;5.87;;;;;;;5.34;90.00;100557.83;1639054;85;25358;-82
2021/04/15 11:42:10;;;;;;;9.05;5.55;;;;;;;5.31;90.00;100560.67;1642265;85;25738;-82
2021/04/15 11:44:55;;;;;;;7.87;5.53;;;;;;;5.27;89.85;100559.30;1638203;85;25378;-82
2021/04/15 11:47:28;;;;;;;8.33;6.20;;;;;;;5.24;90.05;100562.62;1638143;85;25811;-84
2021/04/15 11:50:11;;;;;;;6.78;5.22;;;;;;;5.25;90.20;100561.66;1636525;85;25788;-83
2021/04/15 11:52:40;;;;;;;5.87;4.70;;;;;;;5.28;90.19;100557.04;1641662;85;25931;-81
2021/04/15 11:55:26;;;;;;;6.25;4.75;;;;;;;5.34;90.31;100562.19;1638979;85;25311;-84
2021/04/15 11:58:00;;;;;;;6.50;5.25;;;;;;;5.37;90.13;100563.71;1642907;85;25326;-75
2021/04/15 12:00:32;;;;;;;7.62;5.50;;;;;;;5.37;89.97;100554.16;1638244;85;25855;-83
2021/04/15 12:03:04;;;;;;;7.50;5.62;;;;;;;5.39;89.64;100561.34;1638999;85;25831;-84
2021/04/15 12:05:45;;;;;;;8.83;5.87;;;;;;;5.35;89.49;100550.89;1640428;85;26062;-85
2021/04/15 12:08:31;;;;;;;8.00;5.70;;;;;;;5.37;89.75;100560.64;1640224;85;25845;-85
2021/04/15 12:11:15;;;;;;;6.90;4.55;;;;;;;5.45;89.86;100558.72;1635148;85;25864;-75
2021/04/15 12:13:49;;;;;;;8.50;6.10;;;;;;;5.51;89.82;100551.72;1642997;85;26310;-80
2021/04/15 12:16:35;;;;;;;6.87;5.37;;;;;;;5.53;89.82;100555.83;1621225;86;26032;-78
2021/04/15 12:19:23;;;;;;;7.85;5.30;;;;;;;5.60;90.09;100555.34;1637570;85;25753;-76
2021/04/15 12:22:14;;;;;;;9.23;5.60;;;;;;;5.65;89.80;100558.38;1642562;85;25709;-76
2021/04/15 12:24:46;;;;;;;8.95;5.58;;;;;;;5.63;89.35;100561.56;1641365;85;25776;-77
2021/04/15 12:27:28;;;;;;;7.80;5.70;;;;;;;5.66;89.39;100562.13;1643024;85;26490;-84
2021/04/15 12:30:11;;;;;;;9.83;5.62;;;;;;;5.66;89.33;100562.60;1596362;87;25813;-75
2021/04/15 12:32:52;;;;;;;7.37;4.92;;;;;;;5.74;89.59;100565.38;1591688;88;25381;-81
2021/04/15 12:35:52;;;;;;;9.35;5.33;;;;;;;5.76;89.35;100562.19;1599207;87;25438;-86
2021/04/15 12:38:27;;;;;;;;;;;;;;;5.75;89.34;100565.71;1600607;88;25368;-76
2021/04/15 12:41:06;;;;;;;8.75;6.60;;;;;;;5.81;89.50;100565.66;1598199;88;26673;-78
2021/04/15 12:43:39;;;;;;;6.80;5.22;;;;;;;5.81;89.33;100570.86;1597361;88;26741;-85
2021/04/15 12:46:19;;;;;;;7.90;5.55;;;;;;;5.78;89.21;100566.30;1595963;88;25709;-83
2021/04/15 12:48:54;;;;;;;8.88;5.85;;;;;;;5.75;89.11;100569.60;1599764;88;25379;-78
2021/04/15 12:51:27;;;;;;;10.65;6.03;;;;;;;5.70;89.09;100566.56;1598815;88;25804;-77